createdAt,value
2023-05-06T00:00:51.570Z,100260.19
2023-05-06T00:03:38.681Z,100271.00
2023-05-06T00:06:25.822Z,100270.97
2023-05-06T00:09:12.751Z,100267.38
2023-05-06T00:11:59.716Z,100262.91
2023-05-06T00:14:46.636Z,100269.19
2023-05-06T00:17:33.716Z,100265.97
2023-05-06T00:20:20.811Z,100259.53
2023-05-06T00:23:07.841Z,100254.72
2023-05-06T00:25:55.275Z,100255.47
2023-05-06T00:28:42.215Z,100262.44
2023-05-06T00:31:29.220Z,100262.69
2023-05-06T00:34:16.365Z,100262.28
2023-05-06T00:37:03.290Z,100272.44
2023-05-06T00:39:50.232Z,100282.31
2023-05-06T00:42:37.142Z,100284.66
2023-05-06T00:45:25.305Z,100293.00
2023-05-06T00:48:12.472Z,100289.97
2023-05-06T00:50:59.636Z,100285.28
2023-05-06T00:53:46.924Z,100282.75
2023-05-06T00:56:33.910Z,100281.00
2023-05-06T00:59:21.604Z,100284.97
2023-05-06T01:02:09.489Z,100276.91
2023-05-06T01:04:56.455Z,100280.88
2023-05-06T01:07:58.659Z,100282.44
2023-05-06T01:10:52.323Z,100270.38
2023-05-06T01:13:48.604Z,100274.25
2023-05-06T01:16:38.418Z,100263.09
2023-05-06T01:19:48.975Z,100268.66
2023-05-06T01:22:36.925Z,100264.69
2023-05-06T01:25:23.869Z,100270.22
2023-05-06T01:28:11.857Z,100264.97
2023-05-06T01:31:08.164Z,100270.09
2023-05-06T01:34:15.612Z,100265.28
2023-05-06T01:37:13.973Z,100270.84
2023-05-06T01:40:03.195Z,100257.38
2023-05-06T01:42:50.904Z,100254.28
2023-05-06T01:45:39.494Z,100264.56
2023-05-06T01:48:29.130Z,100251.06
2023-05-06T01:51:16.107Z,100237.47
2023-05-06T01:54:03.704Z,100243.78
2023-05-06T01:56:50.615Z,100245.31
2023-05-06T01:59:37.639Z,100252.81
2023-05-06T02:02:24.716Z,100252.44
2023-05-06T02:05:11.826Z,100254.06
2023-05-06T02:07:58.853Z,100247.63
2023-05-06T02:10:45.833Z,100249.53
2023-05-06T02:13:32.900Z,100254.19
2023-05-06T02:16:20.365Z,100250.56
2023-05-06T02:19:07.369Z,100244.13
2023-05-06T02:21:54.319Z,100252.00
2023-05-06T02:24:41.215Z,100257.56
2023-05-06T02:27:28.232Z,100261.06
2023-05-06T02:30:15.312Z,100263.75
2023-05-06T02:33:02.997Z,100258.97
2023-05-06T02:35:50.754Z,100256.69
2023-05-06T02:38:37.682Z,100249.63
2023-05-06T02:41:24.660Z,100262.75
2023-05-06T02:44:11.644Z,100257.72
2023-05-06T02:46:58.574Z,100256.97
2023-05-06T02:49:45.536Z,100259.00
2023-05-06T02:52:33.440Z,100256.31
2023-05-06T02:55:20.662Z,100261.50
2023-05-06T02:58:07.647Z,100253.16
2023-05-06T03:00:54.685Z,100249.25
2023-05-06T03:03:42.132Z,100258.00
2023-05-06T03:06:29.092Z,100254.88
2023-05-06T03:09:16.082Z,100250.09
2023-05-06T03:12:03.053Z,100254.06
2023-05-06T03:14:49.980Z,100263.50
2023-05-06T03:17:37.807Z,100259.91
2023-05-06T03:20:25.014Z,100244.41
2023-05-06T03:23:11.933Z,100256.25
2023-05-06T03:25:58.799Z,100255.81
2023-05-06T03:28:45.755Z,100249.03
2023-05-06T03:31:32.716Z,100254.16
2023-05-06T03:34:19.735Z,100254.94
2023-05-06T03:37:07.002Z,100251.38
2023-05-06T03:39:53.964Z,100249.84
2023-05-06T03:42:40.891Z,100246.63
2023-05-06T03:45:27.849Z,100243.41
2023-05-06T03:48:15.076Z,100248.94
2023-05-06T03:51:02.178Z,100249.31
2023-05-06T03:53:49.229Z,100248.50
2023-05-06T03:56:36.241Z,100240.50
2023-05-06T03:59:23.182Z,100239.25
2023-05-06T04:02:10.131Z,100243.09
2023-05-06T04:04:57.155Z,100237.47
2023-05-06T04:07:44.104Z,100233.44
2023-05-06T04:10:31.184Z,100236.13
2023-05-06T04:13:18.392Z,100240.44
2023-05-06T04:16:05.748Z,100248.31
2023-05-06T04:18:52.828Z,100245.56
2023-05-06T04:21:39.777Z,100242.78
2023-05-06T04:24:28.651Z,100242.78
2023-05-06T04:27:15.757Z,100245.56
2023-05-06T04:30:02.710Z,100248.31
2023-05-06T04:32:49.707Z,100242.78
2023-05-06T04:35:36.794Z,100249.84
2023-05-06T04:38:25.897Z,100239.56
2023-05-06T04:41:13.047Z,100245.94
2023-05-06T04:43:59.998Z,100243.16
2023-05-06T04:46:47.564Z,100249.03
2023-05-06T04:49:35.064Z,100242.69
2023-05-06T04:52:22.199Z,100240.31
2023-05-06T04:55:09.495Z,100248.19
2023-05-06T04:57:56.584Z,100245.03
2023-05-06T05:00:43.618Z,100252.97
2023-05-06T05:03:30.788Z,100245.47
2023-05-06T05:06:17.916Z,100256.22
2023-05-06T05:09:05.179Z,100252.25
2023-05-06T05:11:52.140Z,100253.06
2023-05-06T05:14:39.080Z,100255.41
2023-05-06T05:17:26.162Z,100261.28
2023-05-06T05:20:13.174Z,100258.91
2023-05-06T05:23:00.147Z,100261.28
2023-05-06T05:25:47.108Z,100266.56
2023-05-06T05:28:34.048Z,100263.53
2023-05-06T05:31:21.132Z,100264.38
2023-05-06T05:34:08.230Z,100267.66
2023-05-06T05:36:55.164Z,100274.19
2023-05-06T05:39:42.086Z,100265.59
2023-05-06T05:42:33.662Z,100269.69
2023-05-06T05:45:21.242Z,100268.66
2023-05-06T05:48:08.272Z,100272.75
2023-05-06T05:50:55.544Z,100272.88
2023-05-06T05:53:42.641Z,100268.28
2023-05-06T05:56:29.585Z,100274.31
2023-05-06T05:59:16.527Z,100286.31
2023-05-06T06:02:03.802Z,100284.41
2023-05-06T06:04:50.751Z,100280.47
2023-05-06T06:07:37.974Z,100279.69
2023-05-06T06:10:25.214Z,100286.50
2023-05-06T06:13:12.276Z,100295.69
2023-05-06T06:15:59.585Z,100296.94
2023-05-06T06:18:46.618Z,100298.97
2023-05-06T06:21:33.667Z,100301.03
2023-05-06T06:24:21.165Z,100301.88
2023-05-06T06:27:08.220Z,100302.75
2023-05-06T06:29:55.233Z,100303.63
2023-05-06T06:32:53.058Z,100305.66
2023-05-06T06:35:40.082Z,100310.91
2023-05-06T06:38:27.075Z,100316.56
2023-05-06T06:41:14.249Z,100312.75
2023-05-06T06:44:01.221Z,100329.13
2023-05-06T06:46:48.179Z,100322.47
2023-05-06T06:49:35.242Z,100324.84
2023-05-06T06:52:22.161Z,100325.66
2023-05-06T06:55:09.751Z,100329.25
2023-05-06T06:57:56.829Z,100327.28
2023-05-06T07:00:43.812Z,100324.13
2023-05-06T07:03:31.086Z,100325.72
2023-05-06T07:06:18.030Z,100321.03
2023-05-06T07:09:04.982Z,100323.97
2023-05-06T07:11:51.953Z,100321.66
2023-05-06T07:14:38.905Z,100320.56
2023-05-06T07:17:25.999Z,100323.81
2023-05-06T07:20:13.357Z,100332.66
2023-05-06T07:23:00.348Z,100330.31
2023-05-06T07:25:47.855Z,100320.00
2023-05-06T07:28:34.839Z,100330.81
2023-05-06T07:31:21.933Z,100331.25
2023-05-06T07:34:08.955Z,100330.81
2023-05-06T07:36:56.328Z,100335.22
2023-05-06T07:39:43.375Z,100331.69
2023-05-06T07:42:30.399Z,100333.75
2023-05-06T07:45:17.482Z,100321.13
2023-05-06T07:48:04.726Z,100331.56
2023-05-06T07:50:51.704Z,100335.53
2023-05-06T07:53:40.197Z,100337.91
2023-05-06T07:56:27.119Z,100341.16
2023-05-06T07:59:14.466Z,100340.75
2023-05-06T08:04:50.182Z,100353.25
2023-05-06T08:07:42.556Z,100343.84
2023-05-06T08:10:29.522Z,100351.91
2023-05-06T08:13:16.552Z,100351.63
2023-05-06T08:16:03.756Z,100341.75
2023-05-06T08:18:50.747Z,100349.00
2023-05-06T08:21:37.677Z,100343.25
2023-05-06T08:24:24.605Z,100353.28
2023-05-06T08:27:11.567Z,100355.72
2023-05-06T08:29:58.529Z,100357.66
2023-05-06T08:32:45.723Z,100353.19
2023-05-06T08:35:32.657Z,100366.66
2023-05-06T08:38:19.653Z,100359.47
2023-05-06T08:41:09.777Z,100347.16
2023-05-06T08:43:58.786Z,100353.63
2023-05-06T08:46:47.119Z,100355.25
2023-05-06T08:49:34.272Z,100354.88
2023-05-06T08:52:22.506Z,100358.84
2023-05-06T08:55:10.345Z,100358.00
2023-05-06T08:57:58.228Z,100365.44
2023-05-06T09:00:46.683Z,100368.59
2023-05-06T09:03:33.796Z,100364.22
2023-05-06T09:06:20.924Z,100363.47
2023-05-06T09:09:07.874Z,100358.81
2023-05-06T09:11:57.485Z,100365.31
2023-05-06T09:14:45.718Z,100358.66
2023-05-06T09:17:33.163Z,100353.66
2023-05-06T09:20:20.170Z,100355.72
2023-05-06T09:23:09.510Z,100342.69
2023-05-06T09:25:57.241Z,100352.69
2023-05-06T09:28:47.040Z,100345.94
2023-05-06T09:31:40.906Z,100341.91
2023-05-06T09:34:27.842Z,100346.66
2023-05-06T09:37:14.801Z,100343.41
2023-05-06T09:40:01.859Z,100338.94
2023-05-06T09:42:51.638Z,100358.41
2023-05-06T09:45:39.266Z,100359.91
2023-05-06T09:48:30.240Z,100368.63
2023-05-06T09:51:17.442Z,100370.22
2023-05-06T09:54:05.479Z,100370.19
2023-05-06T09:56:53.447Z,100363.81
2023-05-06T09:59:41.844Z,100363.03
2023-05-06T10:02:29.491Z,100371.06
2023-05-06T10:05:17.237Z,100371.47
2023-05-06T10:08:05.094Z,100369.53
2023-05-06T10:10:52.705Z,100369.56
2023-05-06T10:13:40.779Z,100361.69
2023-05-06T10:16:29.208Z,100369.00
2023-05-06T10:19:25.813Z,100368.34
2023-05-06T10:22:27.177Z,100372.19
2023-05-06T10:25:25.856Z,100386.00
2023-05-06T10:28:30.353Z,100373.72
2023-05-06T10:31:19.542Z,100384.19
2023-05-06T10:34:08.709Z,100374.66
2023-05-06T10:36:58.001Z,100382.25
2023-05-06T10:39:45.678Z,100379.06
2023-05-06T10:42:35.808Z,100381.47
2023-05-06T10:45:22.974Z,100384.28
2023-05-06T10:48:10.016Z,100378.72
2023-05-06T10:51:26.074Z,100381.19
2023-05-06T10:54:19.199Z,100380.44
2023-05-06T10:57:10.295Z,100378.06
2023-05-06T10:59:57.383Z,100375.69
2023-05-06T11:02:46.201Z,100377.28
2023-05-06T11:05:51.930Z,100385.66
2023-05-06T11:08:39.211Z,100396.44
2023-05-06T11:11:47.939Z,100385.63
2023-05-06T11:14:38.933Z,100375.16
2023-05-06T11:17:33.977Z,100383.53
2023-05-06T11:20:23.646Z,100379.47
2023-05-06T11:23:11.108Z,100372.25
2023-05-06T11:25:59.584Z,100388.22
2023-05-06T11:28:51.289Z,100383.34
2023-05-06T11:31:40.086Z,100377.34
2023-05-06T11:34:31.361Z,100371.34
2023-05-06T11:37:28.650Z,100370.91
2023-05-06T11:40:18.346Z,100373.69
2023-05-06T11:43:15.885Z,100371.38
2023-05-06T11:46:02.997Z,100377.84
2023-05-06T11:48:50.750Z,100372.75
2023-05-06T11:51:37.750Z,100378.06
2023-05-06T11:54:27.403Z,100378.13
2023-05-06T11:57:14.455Z,100383.75
2023-05-06T12:00:01.726Z,100393.72
2023-05-06T12:02:48.743Z,100383.34
2023-05-06T12:05:35.900Z,100378.13
2023-05-06T12:08:41.576Z,100376.16
2023-05-06T12:11:28.825Z,100384.56
2023-05-06T12:14:15.958Z,100392.97
2023-05-06T12:17:03.725Z,100382.19
2023-05-06T12:19:50.742Z,100390.16
2023-05-06T12:22:39.144Z,100387.38
2023-05-06T12:25:26.072Z,100390.94
2023-05-06T12:28:17.595Z,100385.00
2023-05-06T12:31:24.383Z,100388.19
2023-05-06T12:34:11.451Z,100390.97
2023-05-06T12:36:58.364Z,100400.59
2023-05-06T12:39:45.358Z,100398.16
2023-05-06T12:42:32.327Z,100391.00
2023-05-06T12:45:20.069Z,100392.59
2023-05-06T12:48:07.494Z,100390.19
2023-05-06T12:50:54.587Z,100384.53
2023-05-06T12:53:41.579Z,100389.72
2023-05-06T12:56:28.693Z,100388.09
2023-05-06T12:59:15.658Z,100382.88
2023-05-06T13:02:03.353Z,100383.63
2023-05-06T13:04:50.328Z,100387.59
2023-05-06T13:07:37.373Z,100390.41
2023-05-06T13:10:24.467Z,100390.06
2023-05-06T13:13:11.574Z,100389.25
2023-05-06T13:15:58.730Z,100392.81
2023-05-06T13:18:45.885Z,100392.34
2023-05-06T13:21:32.944Z,100392.59
2023-05-06T13:24:19.869Z,100395.22
2023-05-06T13:27:06.800Z,100405.91
2023-05-06T13:29:53.801Z,100397.06
2023-05-06T13:32:40.779Z,100395.25
2023-05-06T13:35:27.759Z,100396.38
2023-05-06T13:38:14.727Z,100396.03
2023-05-06T13:41:01.750Z,100385.00
2023-05-06T13:43:48.736Z,100385.72
2023-05-06T13:46:35.716Z,100396.72
2023-05-06T13:49:22.763Z,100395.66
2023-05-06T13:52:09.732Z,100390.97
2023-05-06T13:54:57.165Z,100401.81
2023-05-06T13:57:44.129Z,100392.19
2023-05-06T14:00:31.271Z,100392.59
2023-05-06T14:03:18.264Z,100395.78
2023-05-06T14:06:05.546Z,100389.38
2023-05-06T14:08:52.525Z,100398.97
2023-05-06T14:11:39.494Z,100396.56
2023-05-06T14:14:27.529Z,100396.56
2023-05-06T14:17:14.461Z,100389.38
2023-05-06T14:20:02.064Z,100388.19
2023-05-06T14:22:49.192Z,100390.19
2023-05-06T14:25:36.129Z,100400.16
2023-05-06T14:28:23.706Z,100384.09
2023-05-06T14:31:10.892Z,100389.59
2023-05-06T14:33:57.851Z,100389.09
2023-05-06T14:36:45.091Z,100393.91
2023-05-06T14:39:32.741Z,100380.06
2023-05-06T14:42:19.855Z,100375.75
2023-05-06T14:45:07.470Z,100382.22
2023-05-06T14:47:54.569Z,100380.09
2023-05-06T14:50:41.591Z,100384.22
2023-05-06T14:53:28.573Z,100385.66
2023-05-06T14:56:15.619Z,100375.47
2023-05-06T14:59:04.232Z,100373.28
2023-05-06T15:01:51.545Z,100367.31
2023-05-06T15:04:38.663Z,100368.13
2023-05-06T15:07:25.777Z,100367.88
2023-05-06T15:10:12.743Z,100361.69
2023-05-06T15:12:59.669Z,100367.09
2023-05-06T15:15:46.640Z,100364.59
2023-05-06T15:18:33.542Z,100367.63
2023-05-06T15:21:20.785Z,100367.41
2023-05-06T15:24:08.172Z,100383.72
2023-05-06T15:26:55.173Z,100369.66
2023-05-06T15:29:42.165Z,100370.41
2023-05-06T15:32:29.383Z,100366.13
2023-05-06T15:35:16.358Z,100368.81
2023-05-06T15:38:03.955Z,100351.88
2023-05-06T15:40:52.164Z,100353.28
2023-05-06T15:43:39.160Z,100358.34
2023-05-06T15:46:30.734Z,100364.66
2023-05-06T15:49:47.504Z,100369.97
2023-05-06T15:52:25.112Z,100365.66
2023-05-06T15:55:13.531Z,100358.91
2023-05-06T15:58:01.039Z,100365.75
2023-05-06T16:00:48.000Z,100361.81
2023-05-06T16:03:36.340Z,100367.41
2023-05-06T16:06:23.466Z,100366.59
2023-05-06T16:09:10.513Z,100372.56
2023-05-06T16:11:57.507Z,100365.78
2023-05-06T16:14:44.542Z,100363.78
2023-05-06T16:17:33.016Z,100371.38
2023-05-06T16:20:20.072Z,100373.78
2023-05-06T16:23:07.376Z,100362.19
2023-05-06T16:25:54.848Z,100367.41
2023-05-06T16:28:41.784Z,100372.59
2023-05-06T16:31:28.851Z,100374.19
2023-05-06T16:34:15.961Z,100375.66
2023-05-06T16:37:03.259Z,100386.56
2023-05-06T16:39:50.325Z,100383.06
2023-05-06T16:42:37.248Z,100398.97
2023-05-06T16:45:24.259Z,100386.44
2023-05-06T16:48:13.361Z,100396.25
2023-05-06T16:51:00.440Z,100381.75
2023-05-06T16:53:47.488Z,100399.59
2023-05-06T16:56:47.986Z,100395.69
2023-05-06T16:59:35.555Z,100407.78
2023-05-06T17:02:22.597Z,100402.59
2023-05-06T17:05:09.846Z,100403.38
2023-05-06T17:07:58.021Z,100402.19
2023-05-06T17:10:45.282Z,100394.16
2023-05-06T17:13:32.382Z,100391.78
2023-05-06T17:16:19.382Z,100391.75
2023-05-06T17:19:06.405Z,100397.31
2023-05-06T17:21:53.416Z,100397.69
2023-05-06T17:24:40.534Z,100397.69
2023-05-06T17:27:27.795Z,100400.44
2023-05-06T17:30:15.219Z,100395.63
2023-05-06T17:33:02.698Z,100396.06
2023-05-06T17:35:49.909Z,100398.06
2023-05-06T17:38:36.904Z,100400.88
2023-05-06T17:41:23.881Z,100397.69
2023-05-06T17:44:10.834Z,100392.91
2023-05-06T17:46:58.105Z,100400.13
2023-05-06T17:49:45.727Z,100398.09
2023-05-06T17:52:32.732Z,100396.50
2023-05-06T17:55:21.826Z,100395.69
2023-05-06T17:58:09.181Z,100402.09
2023-05-06T18:00:56.231Z,100400.50
2023-05-06T18:03:44.054Z,100395.28
2023-05-06T18:06:31.209Z,100402.47
2023-05-06T18:09:18.339Z,100406.88
2023-05-06T18:12:05.629Z,100404.47
2023-05-06T18:14:52.688Z,100413.25
2023-05-06T18:17:39.772Z,100398.13
2023-05-06T18:20:27.170Z,100407.31
2023-05-06T18:23:14.113Z,100416.88
2023-05-06T18:26:04.601Z,100411.66
2023-05-06T18:28:51.608Z,100412.41
2023-05-06T18:31:38.664Z,100419.53
2023-05-06T18:34:25.803Z,100406.75
2023-05-06T18:37:12.737Z,100415.09
2023-05-06T18:39:59.704Z,100415.03
2023-05-06T18:42:47.572Z,100408.22
2023-05-06T18:45:34.597Z,100412.97
2023-05-06T18:48:21.563Z,100421.31
2023-05-06T18:51:27.615Z,100419.38
2023-05-06T18:54:16.175Z,100421.75
2023-05-06T18:57:04.208Z,100428.53
2023-05-06T18:59:51.737Z,100434.53
2023-05-06T19:02:38.730Z,100433.75
2023-05-06T19:05:25.762Z,100419.78
2023-05-06T19:08:13.875Z,100430.13
2023-05-06T19:11:01.888Z,100429.28
2023-05-06T19:13:50.032Z,100440.00
2023-05-06T19:16:37.064Z,100433.53
2023-05-06T19:19:24.065Z,100441.50
2023-05-06T19:22:11.184Z,100444.63
2023-05-06T19:24:58.157Z,100441.44
2023-05-06T19:27:45.155Z,100458.19
2023-05-06T19:30:34.157Z,100454.56
2023-05-06T19:33:21.280Z,100450.22
2023-05-06T19:36:09.276Z,100455.03
2023-05-06T19:38:56.242Z,100453.44
2023-05-06T19:41:43.211Z,100451.06
2023-05-06T19:44:30.129Z,100456.22
2023-05-06T19:47:17.097Z,100455.03
2023-05-06T19:50:05.227Z,100451.00
2023-05-06T19:52:52.237Z,100454.22
2023-05-06T19:55:39.406Z,100457.38
2023-05-06T19:58:26.469Z,100454.56
2023-05-06T20:01:13.513Z,100465.31
2023-05-06T20:04:00.567Z,100467.75
2023-05-06T20:06:47.589Z,100468.94
2023-05-06T20:09:34.560Z,100468.53
2023-05-06T20:12:22.709Z,100473.69
2023-05-06T20:15:10.453Z,100474.91
2023-05-06T20:17:57.711Z,100474.09
2023-05-06T20:20:44.740Z,100481.19
2023-05-06T20:23:31.731Z,100480.75
2023-05-06T20:26:18.662Z,100483.06
2023-05-06T20:29:05.562Z,100483.78
2023-05-06T20:31:52.555Z,100487.84
2023-05-06T20:34:39.532Z,100491.44
2023-05-06T20:37:26.587Z,100489.72
2023-05-06T20:40:14.382Z,100488.09
2023-05-06T20:43:01.279Z,100492.41
2023-05-06T20:45:48.232Z,100499.56
2023-05-06T20:48:35.274Z,100493.56
2023-05-06T20:51:22.310Z,100503.88
2023-05-06T20:54:09.343Z,100501.00
2023-05-06T20:56:57.810Z,100503.69
2023-05-06T20:59:44.896Z,100502.47
2023-05-06T21:02:32.977Z,100506.75
2023-05-06T21:05:21.296Z,100507.09
2023-05-06T21:08:08.796Z,100511.72
2023-05-06T21:10:55.844Z,100507.25
2023-05-06T21:13:42.908Z,100515.53
2023-05-06T21:16:30.109Z,100509.06
2023-05-06T21:19:16.992Z,100513.34
2023-05-06T21:22:03.895Z,100504.53
2023-05-06T21:24:51.314Z,100516.41
2023-05-06T21:27:38.506Z,100510.03
2023-05-06T21:30:26.225Z,100513.53
2023-05-06T21:33:13.169Z,100526.56
2023-05-06T21:36:00.217Z,100520.16
2023-05-06T21:39:00.510Z,100516.06
2023-05-06T21:41:47.428Z,100506.13
2023-05-06T21:44:34.304Z,100508.03
2023-05-06T21:47:21.238Z,100513.28
2023-05-06T21:50:10.711Z,100511.38
2023-05-06T21:52:58.023Z,100520.16
2023-05-06T21:55:44.949Z,100511.31
2023-05-06T21:58:31.901Z,100514.47
2023-05-06T22:01:19.242Z,100522.38
2023-05-06T22:03:46.400Z,100521.63
2023-05-06T22:06:13.287Z,100522.03
2023-05-06T22:08:41.062Z,100525.16
2023-05-06T22:11:08.023Z,100526.38
2023-05-06T22:13:34.684Z,100523.56
2023-05-06T22:16:01.458Z,100531.06
2023-05-06T22:18:30.100Z,100541.69
2023-05-06T22:20:57.889Z,100545.19
2023-05-06T22:23:25.518Z,100548.66
2023-05-06T22:25:52.225Z,100547.38
2023-05-06T22:28:19.915Z,100551.75
2023-05-06T22:30:46.635Z,100546.56
2023-05-06T22:33:13.311Z,100552.88
2023-05-06T22:35:40.059Z,100552.44
2023-05-06T22:38:06.851Z,100556.88
2023-05-06T22:40:33.665Z,100554.50
2023-05-06T22:43:00.388Z,100547.72
2023-05-06T22:45:27.245Z,100557.00
2023-05-06T22:47:54.153Z,100558.69
2023-05-06T22:50:20.894Z,100561.56
2023-05-06T22:52:47.709Z,100560.50
2023-05-06T22:55:15.220Z,100566.56
2023-05-06T22:57:42.065Z,100571.00
2023-05-06T23:00:12.551Z,100572.63
2023-05-06T23:02:39.960Z,100580.97
2023-05-06T23:05:07.315Z,100584.94
2023-05-06T23:07:34.132Z,100578.94
2023-05-06T23:10:00.988Z,100589.19
2023-05-06T23:12:32.076Z,100573.28
2023-05-06T23:14:59.087Z,100582.78
2023-05-06T23:17:26.071Z,100595.09
2023-05-06T23:19:52.926Z,100577.28
2023-05-06T23:22:19.601Z,100584.03
2023-05-06T23:24:46.397Z,100584.41
2023-05-06T23:27:13.158Z,100577.97
2023-05-06T23:29:40.011Z,100579.50
2023-05-06T23:32:07.159Z,100572.31
2023-05-06T23:34:33.888Z,100591.38
2023-05-06T23:37:00.934Z,100585.75
2023-05-06T23:39:27.641Z,100582.53
2023-05-06T23:41:54.458Z,100597.66
2023-05-06T23:44:21.300Z,100579.72
2023-05-06T23:46:48.132Z,100584.06
2023-05-06T23:49:15.367Z,100592.41
2023-05-06T23:51:42.077Z,100590.03
2023-05-06T23:54:08.776Z,100593.66
2023-05-06T23:56:36.023Z,100600.13
2023-05-06T23:59:02.817Z,100596.16
